createdAt,value
2022-09-03T00:03:24.086Z,229
2022-09-03T00:05:25.981Z,229
2022-09-03T00:07:27.835Z,229
2022-09-03T00:09:29.747Z,229
2022-09-03T00:13:33.171Z,229
2022-09-03T00:15:34.932Z,229
2022-09-03T00:19:38.233Z,229
2022-09-03T00:23:41.283Z,229
2022-09-03T00:25:42.640Z,229
2022-09-03T00:27:43.981Z,229
2022-09-03T00:29:45.827Z,229
2022-09-03T00:35:51.050Z,229
2022-09-03T00:37:52.514Z,229
2022-09-03T00:39:54.058Z,229
2022-09-03T00:41:55.678Z,229
2022-09-03T00:45:58.128Z,229
2022-09-03T00:47:59.960Z,229
2022-09-03T00:50:01.354Z,229
2022-09-03T00:56:06.330Z,229
2022-09-03T00:58:08.151Z,229
2022-09-03T01:02:10.974Z,229
2022-09-03T01:06:13.662Z,229
2022-09-03T01:08:15.509Z,229
2022-09-03T01:12:18.472Z,229
2022-09-03T01:16:21.619Z,229
2022-09-03T01:18:23.358Z,229
2022-09-03T01:22:26.910Z,229
2022-09-03T01:24:28.102Z,228
2022-09-03T01:26:29.485Z,228
2022-09-03T01:28:31.006Z,228
2022-09-03T01:32:33.739Z,228
2022-09-03T01:34:34.788Z,228
2022-09-03T01:38:38.491Z,228
2022-09-03T01:40:39.744Z,228
2022-09-03T01:44:42.385Z,228
2022-09-03T01:48:44.821Z,228
2022-09-03T01:50:46.250Z,228
2022-09-03T01:54:49.704Z,228
2022-09-03T01:58:52.658Z,228
2022-09-03T02:00:53.959Z,228
2022-09-03T02:02:55.944Z,228
2022-09-03T02:04:57.077Z,228
2022-09-03T02:06:58.266Z,228
2022-09-03T02:09:00.059Z,228
2022-09-03T02:11:01.874Z,360
2022-09-03T02:13:03.329Z,360
2022-09-03T02:15:04.940Z,360
2022-09-03T02:17:05.934Z,360
2022-09-03T02:19:07.126Z,360
2022-09-03T02:21:08.979Z,360
2022-09-03T02:23:10.213Z,360
2022-09-03T02:27:13.261Z,83
2022-09-03T02:29:14.539Z,83
2022-09-03T02:31:16.003Z,83
2022-09-03T02:33:17.255Z,83
2022-09-03T02:37:20.013Z,83
2022-09-03T02:39:21.345Z,83
2022-09-03T02:43:26.041Z,83
2022-09-03T02:45:25.389Z,83
2022-09-03T02:47:27.047Z,83
2022-09-03T02:49:28.033Z,83
2022-09-03T02:51:29.669Z,83
2022-09-03T02:53:31.038Z,83
2022-09-03T02:55:32.850Z,83
2022-09-03T02:57:34.596Z,83
2022-09-03T02:59:36.101Z,83
2022-09-03T03:01:37.972Z,83
2022-09-03T03:03:39.482Z,83
2022-09-03T03:05:41.218Z,83
2022-09-03T03:09:44.414Z,83
2022-09-03T03:11:45.996Z,83
2022-09-03T03:13:47.442Z,83
2022-09-03T03:19:51.493Z,83
2022-09-03T03:21:52.967Z,83
2022-09-03T03:23:54.243Z,83
2022-09-03T03:25:55.997Z,83
2022-09-03T03:27:57.405Z,83
2022-09-03T03:29:59.160Z,83
2022-09-03T03:32:00.340Z,83
2022-09-03T03:36:03.196Z,83
2022-09-03T03:40:06.301Z,83
2022-09-03T03:42:07.816Z,83
2022-09-03T03:44:09.188Z,83
2022-09-03T03:46:10.985Z,83
2022-09-03T03:48:12.042Z,83
2022-09-03T03:52:14.622Z,83
2022-09-03T03:54:17.453Z,83
2022-09-03T03:56:16.748Z,83
2022-09-03T03:58:18.093Z,83
2022-09-03T04:02:21.130Z,83
2022-09-03T04:04:22.250Z,83
2022-09-03T04:08:25.439Z,83
2022-09-03T04:12:27.414Z,83
2022-09-03T04:14:28.543Z,83
2022-09-03T04:18:31.274Z,83
2022-09-03T04:22:34.058Z,83
2022-09-03T04:24:35.045Z,83
2022-09-03T04:28:37.647Z,83
2022-09-03T04:30:39.263Z,83
2022-09-03T04:32:40.506Z,83
2022-09-03T04:34:41.592Z,83
2022-09-03T04:36:42.628Z,83
2022-09-03T04:38:43.939Z,83
2022-09-03T04:40:45.488Z,83
2022-09-03T04:42:47.088Z,83
2022-09-03T04:44:48.129Z,84
2022-09-03T04:46:49.827Z,83
2022-09-03T04:50:53.535Z,83
2022-09-03T04:52:54.549Z,83
2022-09-03T04:54:55.597Z,84
2022-09-03T04:56:57.023Z,84
2022-09-03T05:00:59.064Z,83
2022-09-03T05:03:00.674Z,84
2022-09-03T05:05:01.815Z,83
2022-09-03T05:07:02.869Z,83
2022-09-03T05:11:05.745Z,83
2022-09-03T05:13:07.398Z,84
2022-09-03T05:15:09.031Z,84
2022-09-03T05:17:10.847Z,83
2022-09-03T05:21:13.796Z,83
2022-09-03T05:23:15.028Z,83
2022-09-03T05:25:16.600Z,83
2022-09-03T05:27:17.612Z,83
2022-09-03T05:29:18.731Z,83
2022-09-03T05:33:21.230Z,83
2022-09-03T05:35:25.877Z,83
2022-09-03T05:37:24.655Z,84
2022-09-03T05:39:25.878Z,83
2022-09-03T05:43:37.020Z,84
2022-09-03T05:45:30.135Z,84
2022-09-03T05:49:32.849Z,84
2022-09-03T05:53:35.368Z,84
2022-09-03T05:55:36.403Z,84
2022-09-03T05:59:38.775Z,84
2022-09-03T06:03:42.230Z,84
2022-09-03T06:05:43.123Z,84
2022-09-03T06:07:44.551Z,84
2022-09-03T06:09:46.103Z,84
2022-09-03T06:15:49.663Z,84
2022-09-03T06:21:53.925Z,98
2022-09-03T06:25:05.700Z,98
2022-09-03T06:27:06.816Z,98
2022-09-03T06:29:08.272Z,98
2022-09-03T06:31:09.703Z,95
2022-09-03T06:33:11.104Z,95
2022-09-03T06:37:13.154Z,95
2022-09-03T06:39:14.641Z,95
2022-09-03T06:41:16.239Z,95
2022-09-03T06:43:17.971Z,95
2022-09-03T06:47:21.000Z,95
2022-09-03T06:49:22.105Z,95
2022-09-03T06:51:23.526Z,95
2022-09-03T06:53:24.415Z,95
2022-09-03T06:57:26.854Z,95
2022-09-03T06:59:28.607Z,95
2022-09-03T07:01:29.913Z,95
2022-09-03T07:03:31.088Z,118
2022-09-03T07:07:33.477Z,144
2022-09-03T07:09:34.569Z,165
2022-09-03T07:13:37.533Z,200
2022-09-03T07:15:38.903Z,200
2022-09-03T07:17:40.418Z,200
2022-09-03T07:19:41.875Z,200
2022-09-03T07:23:45.087Z,200
2022-09-03T07:25:46.305Z,200
2022-09-03T07:27:48.101Z,200
2022-09-03T07:29:49.423Z,200
2022-09-03T07:31:50.567Z,200
2022-09-03T07:35:53.743Z,141
2022-09-03T07:37:54.804Z,114
2022-09-03T07:39:56.579Z,91
2022-09-03T07:41:57.528Z,114
2022-09-03T07:46:00.106Z,360
2022-09-03T07:48:01.454Z,360
2022-09-03T07:50:03.246Z,237
2022-09-03T07:52:04.972Z,94
2022-09-03T07:54:07.557Z,107
2022-09-03T07:56:08.702Z,110
2022-09-03T07:58:10.345Z,86
2022-09-03T08:00:11.405Z,52
2022-09-03T08:02:12.809Z,88
2022-09-03T08:04:13.855Z,161
2022-09-03T08:06:15.193Z,95
2022-09-03T08:08:16.985Z,209
2022-09-03T08:10:18.642Z,157
2022-09-03T08:12:20.301Z,198
2022-09-03T08:14:21.131Z,189
2022-09-03T08:18:24.005Z,185
2022-09-03T08:20:25.505Z,172
2022-09-03T08:22:26.393Z,155
2022-09-03T08:24:27.901Z,197
2022-09-03T08:28:29.893Z,168
2022-09-03T08:30:31.089Z,167
2022-09-03T08:32:32.703Z,108
2022-09-03T08:34:33.808Z,147
2022-09-03T08:36:35.140Z,80
2022-09-03T08:38:36.689Z,89
2022-09-03T08:40:37.581Z,94
2022-09-03T08:42:39.139Z,99
2022-09-03T08:44:40.566Z,99
2022-09-03T08:48:42.665Z,99
2022-09-03T08:50:43.701Z,99
2022-09-03T08:52:44.656Z,99
2022-09-03T08:54:46.186Z,98
2022-09-03T08:56:47.372Z,98
2022-09-03T09:00:50.015Z,98
2022-09-03T09:02:50.984Z,98
2022-09-03T09:04:52.982Z,100
2022-09-03T09:06:54.442Z,100
2022-09-03T09:08:55.295Z,100
2022-09-03T09:10:56.236Z,100
2022-09-03T09:12:57.774Z,100
2022-09-03T09:14:58.795Z,100
2022-09-03T09:21:02.202Z,181
2022-09-03T09:23:04.736Z,180
2022-09-03T09:25:06.406Z,181
2022-09-03T09:27:07.386Z,181
2022-09-03T09:29:09.557Z,328
2022-09-03T09:31:09.514Z,359
2022-09-03T09:33:10.441Z,359
2022-09-03T09:35:11.785Z,358
2022-09-03T09:37:13.373Z,357
2022-09-03T09:39:14.290Z,357
2022-09-03T09:41:15.217Z,298
2022-09-03T09:43:16.308Z,263
2022-09-03T09:47:19.118Z,270
2022-09-03T09:49:20.688Z,243
2022-09-03T09:51:30.840Z,151
2022-09-03T09:57:25.357Z,320
2022-09-03T09:59:26.481Z,318
2022-09-03T10:01:27.911Z,265
2022-09-03T10:03:28.644Z,262
2022-09-03T10:07:31.256Z,272
2022-09-03T10:09:32.779Z,256
2022-09-03T10:11:33.701Z,213
2022-09-03T10:13:34.789Z,262
2022-09-03T10:17:37.617Z,25
2022-09-03T10:19:38.402Z,14
2022-09-03T10:21:39.332Z,247
2022-09-03T10:23:41.153Z,247
2022-09-03T10:29:46.341Z,79
2022-09-03T10:31:47.829Z,13
2022-09-03T10:33:48.627Z,260
2022-09-03T10:35:49.455Z,260
2022-09-03T10:37:51.015Z,260
2022-09-03T10:39:52.737Z,35
2022-09-03T10:41:53.904Z,283
2022-09-03T10:45:55.753Z,5
2022-09-03T10:47:56.714Z,17
2022-09-03T10:49:57.959Z,17
2022-09-03T10:51:58.901Z,284
2022-09-03T10:56:01.581Z,243
2022-09-03T10:58:02.310Z,163
2022-09-03T11:00:03.323Z,251
2022-09-03T11:02:04.375Z,256
2022-09-03T11:04:05.978Z,265
2022-09-03T11:06:07.059Z,233
2022-09-03T11:08:08.011Z,122
2022-09-03T11:10:09.430Z,171
2022-09-03T11:12:10.792Z,172
2022-09-03T11:14:11.940Z,321
2022-09-03T11:16:13.455Z,22
2022-09-03T11:18:15.121Z,262
2022-09-03T11:20:16.868Z,258
2022-09-03T11:22:20.699Z,63
2022-09-03T11:24:19.259Z,290
2022-09-03T11:28:22.173Z,352
2022-09-03T11:30:23.009Z,39
2022-09-03T11:32:24.376Z,50
2022-09-03T11:34:31.672Z,98
2022-09-03T11:36:27.413Z,114
2022-09-03T11:38:28.884Z,114
2022-09-03T11:40:29.661Z,144
2022-09-03T11:42:31.323Z,144
2022-09-03T11:44:32.077Z,131
2022-09-03T11:46:33.001Z,176
2022-09-03T11:48:34.655Z,174
2022-09-03T11:52:37.303Z,360
2022-09-03T11:54:38.831Z,25
2022-09-03T11:56:40.511Z,31
2022-09-03T11:58:41.482Z,46
2022-09-03T12:00:42.578Z,46
2022-09-03T12:02:43.955Z,46
2022-09-03T12:04:44.946Z,277
2022-09-03T12:06:46.458Z,257
2022-09-03T12:08:48.025Z,273
2022-09-03T12:10:49.597Z,264
2022-09-03T12:12:51.331Z,208
2022-09-03T12:14:53.011Z,236
2022-09-03T12:16:54.676Z,272
2022-09-03T12:20:57.213Z,272
2022-09-03T12:22:58.966Z,273
2022-09-03T12:27:02.134Z,238
2022-09-03T12:31:04.521Z,238
2022-09-03T12:33:05.942Z,238
2022-09-03T12:37:08.774Z,265
2022-09-03T12:41:27.125Z,243
2022-09-03T12:43:38.862Z,243
2022-09-03T12:47:37.512Z,251
2022-09-03T12:49:30.798Z,251
2022-09-03T12:53:17.131Z,251
2022-09-03T12:55:18.443Z,251
2022-09-03T12:57:19.554Z,191
2022-09-03T12:59:20.911Z,279
2022-09-03T13:01:22.389Z,206
2022-09-03T13:03:23.707Z,64
2022-09-03T13:05:24.514Z,273
2022-09-03T13:08:09.591Z,315
2022-09-03T13:10:11.264Z,22
2022-09-03T13:14:13.790Z,341
2022-09-03T13:16:15.487Z,341
2022-09-03T13:18:16.936Z,322
2022-09-03T13:20:17.909Z,321
2022-09-03T13:24:21.022Z,282
2022-09-03T13:26:22.584Z,308
2022-09-03T13:28:24.298Z,360
2022-09-03T13:30:25.834Z,269
2022-09-03T13:32:26.691Z,213
2022-09-03T13:34:27.630Z,268
2022-09-03T13:36:28.693Z,268
2022-09-03T13:38:32.851Z,285
2022-09-03T13:40:30.857Z,285
2022-09-03T13:42:31.811Z,256
2022-09-03T13:46:34.689Z,266
2022-09-03T13:48:35.795Z,252
2022-09-03T13:50:37.097Z,311
2022-09-03T13:52:38.875Z,270
2022-09-03T13:56:41.491Z,225
2022-09-03T13:58:43.052Z,261
2022-09-03T14:02:46.386Z,210
2022-09-03T14:04:48.092Z,19
2022-09-03T14:06:49.304Z,16
2022-09-03T14:08:50.391Z,233
2022-09-03T14:12:53.318Z,243
2022-09-03T14:14:55.042Z,243
2022-09-03T14:16:56.058Z,88
2022-09-03T14:18:57.192Z,88
2022-09-03T14:23:00.499Z,267
2022-09-03T14:25:02.222Z,266
2022-09-03T14:27:03.710Z,37
2022-09-03T14:29:04.706Z,190
2022-09-03T14:35:08.483Z,189
2022-09-03T14:37:09.604Z,189
2022-09-03T14:39:10.836Z,189
2022-09-03T14:41:12.216Z,191
2022-09-03T14:45:14.180Z,322
2022-09-03T14:47:15.070Z,38
2022-09-03T14:49:16.054Z,360
2022-09-03T14:55:19.658Z,33
2022-09-03T14:57:20.757Z,33
2022-09-03T14:59:21.899Z,33
2022-09-03T15:01:23.537Z,33
2022-09-03T15:03:24.588Z,32
2022-09-03T15:05:25.397Z,329
2022-09-03T15:07:27.134Z,321
2022-09-03T15:09:28.648Z,320
2022-09-03T15:11:29.764Z,319
2022-09-03T15:13:31.477Z,244
2022-09-03T15:15:33.188Z,244
2022-09-03T15:17:34.163Z,296
2022-09-03T15:19:35.540Z,296
2022-09-03T15:21:37.060Z,296
2022-09-03T15:23:38.837Z,265
2022-09-03T15:27:41.633Z,38
2022-09-03T15:29:43.121Z,328
2022-09-03T15:31:44.944Z,53
2022-09-03T15:33:45.971Z,91
2022-09-03T15:37:48.445Z,1
2022-09-03T15:39:49.636Z,10
2022-09-03T15:41:50.417Z,12
2022-09-03T15:43:51.906Z,360
2022-09-03T15:47:54.030Z,17
2022-09-03T15:49:55.175Z,30
2022-09-03T15:51:56.606Z,29
2022-09-03T15:53:58.146Z,32
2022-09-03T15:58:01.028Z,42
2022-09-03T16:00:02.149Z,34
2022-09-03T16:04:05.025Z,360
2022-09-03T16:06:06.364Z,18
2022-09-03T16:10:24.072Z,30
2022-09-03T16:12:11.203Z,80
2022-09-03T16:14:12.966Z,36
2022-09-03T16:16:13.946Z,360
2022-09-03T16:18:15.339Z,360
2022-09-03T16:20:16.803Z,334
2022-09-03T16:22:17.891Z,32
2022-09-03T16:26:19.867Z,360
2022-09-03T16:30:22.286Z,281
2022-09-03T16:32:23.393Z,281
2022-09-03T16:36:26.349Z,254
2022-09-03T16:40:29.200Z,257
2022-09-03T16:42:30.876Z,273
2022-09-03T16:44:32.526Z,242
2022-09-03T16:46:34.284Z,256
2022-09-03T16:48:35.244Z,210
2022-09-03T16:50:36.467Z,210
2022-09-03T16:52:38.741Z,210
2022-09-03T16:56:40.669Z,31
2022-09-03T16:58:42.274Z,274
2022-09-03T17:00:44.211Z,286
2022-09-03T17:02:45.647Z,287
2022-09-03T17:06:48.573Z,258
2022-09-03T17:10:51.528Z,258
2022-09-03T17:14:54.064Z,258
2022-09-03T17:18:56.305Z,258
2022-09-03T17:20:57.868Z,295
2022-09-03T17:25:00.453Z,360
2022-09-03T17:27:04.199Z,360
2022-09-03T17:29:03.327Z,360
2022-09-03T17:31:04.727Z,360
2022-09-03T17:35:07.197Z,360
2022-09-03T17:37:08.580Z,360
2022-09-03T17:39:10.293Z,360
2022-09-03T17:41:12.062Z,360
2022-09-03T17:43:13.419Z,360
2022-09-03T17:45:14.423Z,360
2022-09-03T17:47:16.107Z,360
2022-09-03T17:51:18.383Z,360
2022-09-03T17:53:19.369Z,360
2022-09-03T17:55:20.885Z,360
2022-09-03T17:57:22.162Z,360
2022-09-03T18:01:24.856Z,360
2022-09-03T18:03:26.081Z,360
2022-09-03T18:05:27.745Z,360
2022-09-03T18:07:29.057Z,360
2022-09-03T18:11:33.786Z,307
2022-09-03T18:13:32.805Z,307
2022-09-03T18:15:33.897Z,307
2022-09-03T18:17:35.558Z,307
2022-09-03T18:23:39.633Z,307
2022-09-03T18:25:40.758Z,307
2022-09-03T18:27:42.168Z,307
2022-09-03T18:29:43.872Z,307
2022-09-03T18:31:45.674Z,307
2022-09-03T18:33:47.185Z,307
2022-09-03T18:35:48.372Z,307
2022-09-03T18:37:49.515Z,307
2022-09-03T18:43:53.049Z,307
2022-09-03T18:46:34.400Z,307
2022-09-03T18:49:56.766Z,307
2022-09-03T18:51:58.032Z,307
2022-09-03T18:54:07.437Z,307
2022-09-03T18:56:00.622Z,307
2022-09-03T18:58:01.940Z,307
2022-09-03T19:06:07.587Z,307
2022-09-03T19:08:08.655Z,307
2022-09-03T19:10:10.141Z,307
2022-09-03T19:12:11.899Z,307
2022-09-03T19:14:12.960Z,307
2022-09-03T19:16:14.723Z,307
2022-09-03T19:18:15.535Z,307
2022-09-03T19:20:17.101Z,307
2022-09-03T19:22:18.542Z,307
2022-09-03T19:24:20.109Z,307
2022-09-03T19:26:21.892Z,307
2022-09-03T19:28:23.731Z,307
2022-09-03T19:30:25.655Z,307
2022-09-03T19:34:27.866Z,307
2022-09-03T19:42:33.406Z,307
2022-09-03T19:44:34.469Z,307
2022-09-03T19:46:35.989Z,307
2022-09-03T19:48:37.193Z,307
2022-09-03T19:50:38.182Z,307
2022-09-03T19:52:39.623Z,307
2022-09-03T19:53:23.369Z,307
2022-09-03T19:59:27.062Z,307
2022-09-03T20:01:28.680Z,307
2022-09-03T20:03:30.307Z,307
2022-09-03T20:05:32.028Z,307
2022-09-03T20:09:34.794Z,307
2022-09-03T20:11:35.721Z,307
2022-09-03T20:13:36.922Z,307
2022-09-03T20:19:40.153Z,307
2022-09-03T20:21:41.397Z,307
2022-09-03T20:25:44.493Z,307
2022-09-03T20:27:46.387Z,307
2022-09-03T20:29:47.895Z,307
2022-09-03T20:31:49.786Z,307
2022-09-03T20:35:52.523Z,307
2022-09-03T20:39:55.364Z,307
2022-09-03T20:41:56.584Z,307
2022-09-03T20:45:59.440Z,307
2022-09-03T20:48:00.918Z,307
2022-09-03T20:50:02.287Z,307
2022-09-03T20:52:03.306Z,307
2022-09-03T20:58:07.446Z,307
2022-09-03T21:00:08.763Z,307
2022-09-03T21:02:10.611Z,307
2022-09-03T21:04:11.614Z,307
2022-09-03T21:06:12.580Z,307
2022-09-03T21:10:15.940Z,307
2022-09-03T21:12:17.289Z,307
2022-09-03T21:14:19.164Z,307
2022-09-03T21:20:24.145Z,307
2022-09-03T21:22:25.176Z,307
2022-09-03T21:24:30.788Z,307
2022-09-03T21:26:27.894Z,307
2022-09-03T21:28:28.902Z,307
2022-09-03T21:30:30.417Z,307
2022-09-03T21:32:31.448Z,307
2022-09-03T21:34:32.384Z,307
2022-09-03T21:36:33.283Z,307
2022-09-03T21:38:34.481Z,307
2022-09-03T21:40:36.172Z,307
2022-09-03T21:42:37.806Z,307
2022-09-03T21:44:38.873Z,306
2022-09-03T21:50:43.289Z,306
2022-09-03T21:52:44.362Z,306
2022-09-03T21:54:46.034Z,306
2022-09-03T21:56:47.153Z,307
2022-09-03T22:00:50.638Z,307
2022-09-03T22:02:52.169Z,307
2022-09-03T22:04:53.265Z,306
2022-09-03T22:06:55.076Z,307
2022-09-03T22:10:58.153Z,306
2022-09-03T22:12:59.130Z,306
2022-09-03T22:17:02.208Z,306
2022-09-03T22:21:04.930Z,306
2022-09-03T22:23:06.015Z,306
2022-09-03T22:25:07.934Z,306
2022-09-03T22:27:09.468Z,306
2022-09-03T22:29:10.645Z,306
2022-09-03T22:33:13.891Z,306
2022-09-03T22:35:14.913Z,306
2022-09-03T22:37:16.431Z,306
2022-09-03T22:39:17.901Z,306
2022-09-03T22:43:20.988Z,306
2022-09-03T22:45:22.306Z,306
2022-09-03T22:49:24.870Z,306
2022-09-03T22:53:27.424Z,306
2022-09-03T22:55:28.536Z,306
2022-09-03T22:59:30.609Z,306
2022-09-03T23:03:33.739Z,306
2022-09-03T23:05:35.023Z,306
2022-09-03T23:09:37.925Z,306
2022-09-03T23:11:38.989Z,306
2022-09-03T23:13:40.318Z,306
2022-09-03T23:15:42.025Z,306
2022-09-03T23:17:43.218Z,306
2022-09-03T23:19:44.111Z,306
2022-09-03T23:21:45.910Z,306
2022-09-03T23:23:47.816Z,306
2022-09-03T23:25:49.286Z,306
2022-09-03T23:27:51.026Z,306
2022-09-03T23:29:52.394Z,306
2022-09-03T23:33:55.895Z,306
2022-09-03T23:35:57.306Z,306
2022-09-03T23:37:58.467Z,306
2022-09-03T23:44:02.945Z,306
2022-09-03T23:46:04.577Z,306
2022-09-03T23:48:06.253Z,306
2022-09-03T23:50:07.924Z,306
2022-09-03T23:52:09.471Z,306
2022-09-03T23:54:11.229Z,306
2022-09-03T23:56:13.019Z,306
2022-09-03T23:58:14.148Z,306
